Terminal Aerodrome Forecast
Issued by NWS La Crosse, WI

Home | Current Version | Previous Version | Text Only | Print | Product List | Glossary On
Versions: 1 2 3 4 5 6 7 8 9 10 11 12 13 14 15 16 17 18 19 20 21 22 23
000
FTUS43 KARX 051120
TAFRST
TAF
KRST 051120Z 0512/0612 VRB04KT P6SM SKC
     FM051400 20008KT P6SM SCT100
      TEMPO 0514/0518 -RA BKN080
     FM052300 24007KT P6SM FEW100=

USA.gov is the U.S. government's official web portal to all federal, state and local government web resources and services.